Time;durP1;ratioP1;P1;durP2;ratioP2;P2;SDS_P1;SDS_P2;PMS_P1;PMS_P2;Temp;Humidity;BMP_temperature;BMP_pressure;BME280_temperature;BME280_humidity;BME280_pressure;Samples;Min_cycle;Max_cycle;Signal;HPM_P1;HPM_P2
2023/10/18 00:01:45;;;;;;;17.17;15.60;;;;;;;8.92;100.00;92915.38;5048619;28;20170;-82
2023/10/18 00:04:11;;;;;;;16.97;15.47;;;;;;;8.88;100.00;92914.31;5045394;28;20244;-81
2023/10/18 00:06:36;;;;;;;17.33;15.60;;;;;;;8.87;100.00;92913.50;5038388;28;20178;-82
2023/10/18 00:09:38;;;;;;;15.90;14.70;;;;;;;8.91;100.00;92926.81;5044375;28;20228;-82
2023/10/18 00:11:48;;;;;;;15.90;14.80;;;;;;;8.79;100.00;92918.47;5048091;28;20253;-80
2023/10/18 00:14:13;;;;;;;16.80;15.50;;;;;;;8.74;100.00;92915.88;5044105;28;20214;-81
2023/10/18 00:16:39;;;;;;;16.30;14.97;;;;;;;8.78;100.00;92920.28;5047893;28;20217;-84
2023/10/18 00:19:04;;;;;;;15.73;14.47;;;;;;;8.74;100.00;92913.25;5049643;28;20222;-81
2023/10/18 00:21:32;;;;;;;16.47;15.27;;;;;;;8.74;100.00;92914.06;5049034;28;20194;-82
2023/10/18 00:23:58;;;;;;;15.83;14.67;;;;;;;8.80;100.00;92907.00;5048593;28;20228;-82
2023/10/18 00:26:23;;;;;;;15.93;14.70;;;;;;;8.77;100.00;92915.34;5048879;28;20831;-83
2023/10/18 00:28:48;;;;;;;15.77;14.57;;;;;;;8.76;100.00;92914.59;5035301;28;20250;-82
2023/10/18 00:31:17;;;;;;;16.07;14.97;;;;;;;8.71;100.00;92904.16;5044138;28;20189;-82
2023/10/18 00:33:44;;;;;;;15.37;14.27;;;;;;;8.66;100.00;92906.75;5043538;28;20294;-82
2023/10/18 00:36:10;;;;;;;15.67;14.40;;;;;;;8.66;100.00;92911.16;5047676;28;20241;-83
2023/10/18 00:38:38;;;;;;;15.70;14.37;;;;;;;8.68;100.00;92899.47;5047654;28;20248;-82
2023/10/18 00:41:07;;;;;;;15.53;14.53;;;;;;;8.68;100.00;92896.09;5046589;28;20233;-82
2023/10/18 00:43:33;;;;;;;16.53;15.27;;;;;;;8.58;100.00;92859.63;5046293;28;20237;-82
2023/10/18 00:45:59;;;;;;;15.53;14.40;;;;;;;8.82;100.00;92899.72;5045823;28;20241;-82
2023/10/18 00:48:27;;;;;;;15.20;14.10;;;;;;;8.84;100.00;92895.06;5047620;28;20229;-81
2023/10/18 00:50:55;;;;;;;17.13;15.47;;;;;;;8.79;100.00;92902.84;5047929;28;20190;-82
2023/10/18 00:53:22;;;;;;;16.73;15.20;;;;;;;8.77;100.00;92897.13;5047588;28;20225;-82
2023/10/18 00:56:04;;;;;;;16.53;14.87;;;;;;;8.78;100.00;92898.69;5048985;28;20189;-82
2023/10/18 00:58:31;;;;;;;16.87;15.37;;;;;;;8.83;100.00;92898.69;5048312;28;20217;-80
2023/10/18 01:00:59;;;;;;;16.40;15.07;;;;;;;8.80;100.00;92901.81;5045200;28;20252;-81
2023/10/18 01:03:32;;;;;;;17.87;16.20;;;;;;;8.70;100.00;92888.81;5039676;28;20249;-82
2023/10/18 01:06:00;;;;;;;15.87;14.47;;;;;;;8.75;100.00;92901.78;5048746;28;20208;-82
2023/10/18 01:08:29;;;;;;;16.97;15.67;;;;;;;8.73;100.00;92902.06;5047253;28;20249;-83
2023/10/18 01:11:12;;;;;;;17.57;15.93;;;;;;;8.77;100.00;92907.53;5035593;28;20189;-81
2023/10/18 01:13:42;;;;;;;16.80;15.40;;;;;;;8.84;100.00;92908.84;5036245;28;20218;-85
2023/10/18 01:16:15;;;;;;;16.70;15.10;;;;;;;8.85;100.00;92909.63;5044735;28;20190;-82
2023/10/18 01:18:46;;;;;;;17.30;15.83;;;;;;;8.77;100.00;92910.13;5047123;28;20218;-82
2023/10/18 01:21:19;;;;;;;18.73;16.77;;;;;;;8.83;100.00;92903.88;5035526;28;20251;-81
2023/10/18 01:23:53;;;;;;;18.57;16.47;;;;;;;8.75;100.00;92900.00;5048418;28;20225;-82
2023/10/18 01:26:21;;;;;;;18.43;16.43;;;;;;;8.70;100.00;92901.81;5043396;28;20182;-83
2023/10/18 01:28:47;;;;;;;18.97;17.17;;;;;;;8.73;100.00;92901.28;5048733;28;20310;-82
2023/10/18 01:31:12;;;;;;;17.60;16.20;;;;;;;8.76;100.00;92900.78;5042057;28;20209;-82
2023/10/18 01:33:45;;;;;;;18.13;16.53;;;;;;;8.70;100.00;92907.03;5040784;28;20872;-78
2023/10/18 01:36:14;;;;;;;19.13;17.27;;;;;;;8.75;100.00;92909.59;5041451;28;20250;-82
2023/10/18 01:38:42;;;;;;;19.30;17.33;;;;;;;8.81;100.00;92909.34;5042216;28;20221;-82
2023/10/18 01:41:09;;;;;;;18.67;16.90;;;;;;;8.90;100.00;92909.63;5045155;28;20856;-82
2023/10/18 01:43:37;;;;;;;19.80;17.90;;;;;;;8.84;100.00;92914.03;5047761;28;20210;-82
2023/10/18 01:46:08;;;;;;;20.17;18.23;;;;;;;8.66;100.00;92895.56;5048374;28;20241;-82
2023/10/18 01:48:37;;;;;;;19.97;17.83;;;;;;;8.55;100.00;92886.97;5039913;28;20382;-81
2023/10/18 01:51:05;;;;;;;20.47;18.57;;;;;;;8.39;100.00;92874.19;5047505;28;20190;-82
2023/10/18 01:53:31;;;;;;;19.87;18.03;;;;;;;8.69;100.00;92900.25;5040192;28;20225;-82
2023/10/18 01:55:57;;;;;;;17.70;15.97;;;;;;;8.71;100.00;92903.38;5047289;28;20193;-82
2023/10/18 01:58:26;;;;;;;19.80;17.70;;;;;;;8.68;100.00;92898.69;5040310;28;20225;-83
2023/10/18 02:00:55;;;;;;;19.53;17.60;;;;;;;8.73;100.00;92901.28;5044556;28;20194;-80
2023/10/18 02:03:21;;;;;;;19.33;17.63;;;;;;;8.81;100.00;92904.16;5051491;28;20226;-82
2023/10/18 02:05:47;;;;;;;19.23;17.40;;;;;;;8.77;100.00;92897.91;5047009;28;20216;-83
2023/10/18 02:08:13;;;;;;;19.10;17.13;;;;;;;8.79;100.00;92905.47;5045054;28;20240;-83
2023/10/18 02:10:41;;;;;;;19.50;17.60;;;;;;;8.66;100.00;92904.16;5050693;28;20186;-81
2023/10/18 02:13:10;;;;;;;19.33;17.40;;;;;;;8.64;100.00;92908.06;5078569;28;20218;-83
2023/10/18 02:15:39;;;;;;;19.23;17.33;;;;;;;8.67;100.00;92903.09;5048806;28;20210;-83
2023/10/18 02:18:05;;;;;;;20.93;18.77;;;;;;;8.73;100.00;92907.25;5033413;28;20223;-81
2023/10/18 02:20:31;;;;;;;19.50;17.70;;;;;;;8.72;100.00;92905.72;5051500;28;20278;-82
2023/10/18 02:23:10;;;;;;;18.23;16.27;;;;;;;8.72;100.00;92899.72;5046471;28;20194;-82
2023/10/18 02:28:22;;;;;;;19.03;17.10;;;;;;;8.66;100.00;92908.56;5050761;28;20225;-83
2023/10/18 02:30:55;;;;;;;20.33;18.30;;;;;;;8.56;100.00;92892.97;5055633;28;20186;-83
2023/10/18 02:33:26;;;;;;;18.03;16.47;;;;;;;8.67;100.00;92904.94;5052179;28;20339;-82
2023/10/18 02:35:52;;;;;;;17.90;16.20;;;;;;;8.63;100.00;92901.28;5071633;28;20185;-82
2023/10/18 02:38:20;;;;;;;18.17;16.27;;;;;;;8.54;100.00;92897.63;5086373;28;20247;-82
2023/10/18 02:40:45;;;;;;;19.50;17.70;;;;;;;8.71;100.00;92898.16;5072668;28;20186;-82
2023/10/18 02:43:11;;;;;;;17.60;16.07;;;;;;;8.79;100.00;92893.25;5070534;28;20248;-83
2023/10/18 02:45:40;;;;;;;18.17;15.93;;;;;;;8.76;100.00;92898.97;5072693;28;20293;-80
2023/10/18 02:48:13;;;;;;;18.77;17.00;;;;;;;8.63;100.00;92891.66;5072886;28;20233;-82
2023/10/18 02:50:40;;;;;;;17.20;15.40;;;;;;;8.72;100.00;92910.91;5071578;28;20197;-81
2023/10/18 02:53:08;;;;;;;17.47;15.87;;;;;;;8.73;100.00;92903.91;5082499;28;20232;-83
2023/10/18 02:55:38;;;;;;;18.23;16.50;;;;;;;8.76;100.00;92887.75;5087542;28;20215;-81
2023/10/18 02:58:06;;;;;;;17.87;16.17;;;;;;;8.77;100.00;92886.72;5060841;28;20237;-82
2023/10/18 03:00:34;;;;;;;16.53;15.03;;;;;;;8.75;100.00;92884.38;5050115;28;20177;-82
2023/10/18 03:03:01;;;;;;;16.90;15.37;;;;;;;8.78;100.00;92889.06;5050325;28;20218;-82
2023/10/18 03:05:28;;;;;;;16.27;14.87;;;;;;;8.61;100.00;92888.53;5050972;28;20209;-82
2023/10/18 03:07:53;;;;;;;16.63;15.23;;;;;;;8.76;100.00;92883.34;5044562;28;20194;-82
2023/10/18 03:10:27;;;;;;;15.63;14.33;;;;;;;8.64;100.00;92877.59;5050681;28;20225;-83
2023/10/18 03:12:53;;;;;;;17.33;15.63;;;;;;;8.65;100.00;92883.59;5049882;28;20209;-83
2023/10/18 03:15:20;;;;;;;16.00;14.60;;;;;;;8.67;100.00;92884.13;5049557;28;20210;-83
2023/10/18 03:17:49;;;;;;;17.10;15.73;;;;;;;8.65;100.00;92876.56;5048874;28;20187;-82
2023/10/18 03:20:22;;;;;;;16.33;14.83;;;;;;;8.55;100.00;92878.38;5050041;28;20182;-82
2023/10/18 03:22:49;;;;;;;16.67;15.10;;;;;;;8.72;100.00;92876.28;5049937;28;20539;-82
2023/10/18 03:25:30;;;;;;;15.83;14.53;;;;;;;8.74;100.00;92879.44;5050037;28;20186;-82
2023/10/18 03:28:03;;;;;;;14.20;13.10;;;;;;;8.74;100.00;92889.84;5050066;28;20182;-82
2023/10/18 03:30:44;;;;;;;14.13;13.03;;;;;;;8.55;100.00;92884.34;5044909;28;20190;-79
2023/10/18 03:33:13;;;;;;;15.37;14.23;;;;;;;8.66;100.00;92877.34;5041904;28;20230;-81
2023/10/18 03:35:40;;;;;;;14.60;13.50;;;;;;;8.73;100.00;92880.47;5046120;28;20202;-82
2023/10/18 03:38:17;;;;;;;14.97;13.67;;;;;;;8.66;100.00;92856.50;5049338;28;20515;-83
2023/10/18 03:40:48;;;;;;;15.67;14.27;;;;;;;8.74;100.00;92866.41;5050066;28;20227;-81
2023/10/18 03:43:15;;;;;;;15.83;14.43;;;;;;;8.62;100.00;92860.69;5048336;28;20285;-82
2023/10/18 03:46:07;;;;;;;14.90;13.67;;;;;;;8.78;100.00;92870.06;5049579;28;20229;-83
2023/10/18 03:48:39;;;;;;;17.77;16.13;;;;;;;8.64;100.00;92856.78;5043164;28;20229;-83
2023/10/18 03:51:05;;;;;;;18.00;16.40;;;;;;;8.71;100.00;92866.94;5048505;28;20213;-82
2023/10/18 03:53:30;;;;;;;17.07;15.63;;;;;;;8.58;100.00;92864.84;5048142;28;20225;-82
2023/10/18 03:55:56;;;;;;;17.07;15.57;;;;;;;8.60;100.00;92865.38;5047161;28;20245;-81
2023/10/18 03:58:26;;;;;;;18.33;16.57;;;;;;;8.85;100.00;92879.19;5040337;28;20221;-81
2023/10/18 04:00:55;;;;;;;16.93;15.23;;;;;;;8.77;100.00;92865.88;5049746;28;20192;-83
2023/10/18 04:03:23;;;;;;;16.83;15.33;;;;;;;8.58;100.00;92851.81;5048721;28;20313;-81
2023/10/18 04:05:53;;;;;;;15.67;14.30;;;;;;;8.48;100.00;92864.84;5049813;28;20198;-81
2023/10/18 04:08:19;;;;;;;16.57;15.27;;;;;;;8.50;100.00;92860.16;5049448;28;20218;-82
2023/10/18 04:10:46;;;;;;;15.30;14.23;;;;;;;8.34;100.00;92845.56;5047846;28;20256;-82
2023/10/18 04:13:12;;;;;;;17.40;16.30;;;;;;;8.51;100.00;92840.91;5047773;28;20320;-82
2023/10/18 04:15:45;;;;;;;12.93;12.03;;;;;;;8.48;100.00;92847.41;5047829;28;20221;-81
2023/10/18 04:18:15;;;;;;;13.57;12.70;;;;;;;8.36;100.00;92843.50;5046814;28;20252;-85
2023/10/18 04:20:46;;;;;;;12.77;11.97;;;;;;;8.53;100.00;92846.66;5045556;28;20249;-82
2023/10/18 04:23:15;;;;;;;12.77;12.07;;;;;;;8.54;100.00;92841.19;5043015;28;20253;-82
2023/10/18 04:25:57;;;;;;;12.37;11.67;;;;;;;8.47;100.00;92847.69;5049042;28;20182;-82
2023/10/18 04:28:23;;;;;;;12.17;11.37;;;;;;;8.63;100.00;92842.22;5049098;28;20218;-82
2023/10/18 04:30:51;;;;;;;12.93;12.13;;;;;;;8.51;100.00;92836.50;5049368;28;20833;-82
2023/10/18 04:35:45;;;;;;;13.27;12.43;;;;;;;8.55;100.00;92849.75;5040189;28;20340;-82
2023/10/18 04:38:30;;;;;;;13.00;12.20;;;;;;;8.59;100.00;92854.16;5046678;28;20234;-81
2023/10/18 04:41:03;;;;;;;12.23;11.53;;;;;;;8.51;100.00;92852.09;5043213;28;20186;-81
2023/10/18 04:43:32;;;;;;;13.10;12.10;;;;;;;8.53;100.00;92844.81;5048357;28;20229;-81
2023/10/18 04:45:59;;;;;;;11.97;11.27;;;;;;;8.38;100.00;92844.00;5047555;28;20238;-81
2023/10/18 04:51:10;;;;;;;12.90;12.20;;;;;;;8.44;100.00;92858.56;5039984;28;20241;-82
2023/10/18 04:53:45;;;;;;;12.67;11.83;;;;;;;8.48;100.00;92852.63;5043585;28;20938;-81
2023/10/18 04:56:10;;;;;;;12.87;12.00;;;;;;;8.60;100.00;92876.56;5037802;28;20179;-81
2023/10/18 04:58:40;;;;;;;13.63;12.73;;;;;;;8.69;100.00;92879.41;5045898;28;20221;-81
2023/10/18 05:01:07;;;;;;;13.80;12.80;;;;;;;8.65;100.00;92878.38;5041160;28;20182;-81
2023/10/18 05:03:33;;;;;;;15.43;14.33;;;;;;;8.35;100.00;92889.53;5046958;28;20217;-81
2023/10/18 05:05:59;;;;;;;14.77;13.60;;;;;;;8.33;100.00;92893.44;5044284;28;20200;-82
2023/10/18 05:08:24;;;;;;;17.73;16.33;;;;;;;8.29;100.00;92900.97;5048424;28;20218;-81
2023/10/18 05:10:52;;;;;;;20.73;19.03;;;;;;;8.33;100.00;92906.44;5047580;28;20178;-81
2023/10/18 05:13:33;;;;;;;24.57;15.90;;;;;;;8.45;100.00;92920.00;5049104;28;20225;-79
2023/10/18 05:16:04;;;;;;;26.80;24.70;;;;;;;8.68;100.00;92922.91;5045839;28;20182;-81
2023/10/18 05:18:30;;;;;;;18.43;16.67;;;;;;;8.66;100.00;92929.38;5043607;28;20282;-82
2023/10/18 05:20:57;;;;;;;18.20;16.50;;;;;;;8.58;100.00;92929.88;5048098;28;20190;-82
2023/10/18 05:23:25;;;;;;;19.77;17.97;;;;;;;8.78;100.00;92920.28;5048530;28;20256;-81
2023/10/18 05:26:32;;;;;;;19.53;17.73;;;;;;;8.83;100.00;92940.34;5040057;28;20217;-81
2023/10/18 05:28:53;;;;;;;18.80;17.20;;;;;;;8.83;100.00;92948.13;5045590;28;20228;-81
2023/10/18 05:34:48;;;;;;;18.37;16.60;;;;;;;8.91;100.00;92952.84;5051839;28;20225;-81
2023/10/18 05:41:52;;;;;;;18.33;16.73;;;;;;;9.13;100.00;92958.59;5046262;28;20976;-81
2023/10/18 05:44:17;;;;;;;18.97;17.23;;;;;;;9.09;100.00;92962.75;5051592;28;20248;-82
2023/10/18 05:46:46;;;;;;;18.70;17.00;;;;;;;8.98;100.00;92940.34;5051778;28;20230;-82
2023/10/18 05:49:40;;;;;;;21.33;19.20;;;;;;;9.18;100.00;92961.19;5050194;28;20241;-81
2023/10/18 05:54:34;;;;;;;18.47;16.80;;;;;;;9.38;100.00;92950.75;5051519;28;20275;-83
2023/10/18 05:57:00;;;;;;;20.80;18.70;;;;;;;9.46;100.00;92948.38;5048364;28;20206;-82
2023/10/18 05:59:31;;;;;;;19.60;17.70;;;;;;;9.63;100.00;92948.88;5044435;28;20257;-82
2023/10/18 06:04:44;;;;;;;20.83;18.87;;;;;;;9.96;100.00;92944.13;5050522;28;20220;-78
2023/10/18 06:07:10;;;;;;;18.17;16.57;;;;;;;9.84;100.00;92938.44;5051853;28;20209;-82
2023/10/18 06:09:55;;;;;;;15.97;14.67;;;;;;;9.94;100.00;92948.81;5046228;28;20229;-82
2023/10/18 06:12:23;;;;;;;17.50;15.90;;;;;;;9.97;100.00;92945.66;5040753;28;20183;-82
2023/10/18 06:14:52;;;;;;;17.53;16.03;;;;;;;9.74;100.00;92939.22;5044620;28;20226;-82
2023/10/18 06:17:19;;;;;;;17.67;16.17;;;;;;;10.02;100.00;92949.06;5038552;28;20218;-83
2023/10/18 06:19:47;;;;;;;17.80;16.30;;;;;;;10.03;100.00;92953.22;5038662;28;20431;-82
2023/10/18 06:22:17;;;;;;;18.27;16.37;;;;;;;10.06;100.00;92951.88;5040469;28;20193;-83
2023/10/18 06:24:48;;;;;;;17.47;15.97;;;;;;;10.19;100.00;92941.72;5041590;28;20242;-82
2023/10/18 06:27:16;;;;;;;17.67;15.97;;;;;;;10.13;100.00;92947.22;5048052;28;20205;-83
2023/10/18 06:29:42;;;;;;;16.70;15.23;;;;;;;10.25;100.00;92945.06;5042299;28;20218;-82
2023/10/18 06:32:13;;;;;;;16.83;15.43;;;;;;;10.25;100.00;92935.41;5047000;28;20189;-80
2023/10/18 06:34:40;;;;;;;17.13;15.57;;;;;;;10.22;100.00;92940.38;5036623;28;20218;-82
2023/10/18 06:37:08;;;;;;;16.60;15.17;;;;;;;10.29;100.00;92952.09;5050089;28;20201;-82
2023/10/18 06:39:35;;;;;;;16.50;15.20;;;;;;;10.30;100.00;92956.28;5050666;28;20245;-82
2023/10/18 06:42:06;;;;;;;18.77;17.43;;;;;;;10.31;100.00;92957.03;5048300;28;20193;-82
2023/10/18 06:44:34;;;;;;;17.40;16.00;;;;;;;10.49;100.00;92962.44;5048087;28;20217;-82
2023/10/18 06:47:06;;;;;;;15.87;14.47;;;;;;;10.58;100.00;92955.63;5046414;28;20249;-82
2023/10/18 06:49:31;;;;;;;16.77;15.27;;;;;;;10.66;100.00;92967.31;5050644;28;20221;-83
2023/10/18 06:51:57;;;;;;;15.13;13.83;;;;;;;10.44;100.00;92964.31;5039478;28;20360;-82
2023/10/18 06:54:32;;;;;;;16.47;15.13;;;;;;;10.26;100.00;92963.06;5049307;28;20225;-82
2023/10/18 06:59:55;;;;;;;17.43;15.83;;;;;;;10.15;100.00;92966.75;5055426;28;20230;-82
2023/10/18 07:02:27;;;;;;;17.00;15.10;;;;;;;10.43;100.00;92968.72;5078092;28;20185;-83
2023/10/18 07:04:56;;;;;;;17.23;15.17;;;;;;;10.56;100.00;92978.59;5068926;28;20223;-82
2023/10/18 07:07:23;;;;;;;16.23;14.67;;;;;;;10.59;100.00;92967.63;5069320;28;20201;-83
2023/10/18 07:09:56;;;;;;;15.63;14.20;;;;;;;10.58;100.00;92976.50;5067405;28;20205;-79
2023/10/18 07:12:32;;;;;;;16.90;15.17;;;;;;;10.77;100.00;92990.47;5077446;28;20197;-82
2023/10/18 07:14:57;;;;;;;15.70;14.30;;;;;;;10.71;100.00;92986.34;5071168;28;20232;-82
2023/10/18 07:17:26;;;;;;;16.50;15.03;;;;;;;10.65;100.00;92991.84;5070286;28;20664;-83
2023/10/18 07:20:01;;;;;;;16.23;14.87;;;;;;;10.72;100.00;92987.91;5069832;28;20758;-81
2023/10/18 07:22:44;;;;;;;26.70;21.73;;;;;;;10.68;100.00;92980.88;5070245;28;20201;-82
2023/10/18 07:25:19;;;;;;;15.97;14.67;;;;;;;10.86;100.00;92978.41;5050276;28;20266;-78
2023/10/18 07:27:45;;;;;;;18.67;16.93;;;;;;;10.81;100.00;92990.72;5061017;28;20189;-81
2023/10/18 07:30:16;;;;;;;17.30;15.10;;;;;;;10.92;100.00;92987.81;5057544;28;20173;-82
2023/10/18 07:32:47;;;;;;;38.87;24.77;;;;;;;10.97;100.00;92992.97;5072972;28;20197;-82
2023/10/18 07:35:26;;;;;;;26.77;21.07;;;;;;;11.15;100.00;92994.97;5066938;28;20220;-82
2023/10/18 07:37:51;;;;;;;28.33;18.47;;;;;;;10.92;100.00;92987.00;5068204;28;20855;-82
2023/10/18 07:40:21;;;;;;;17.20;15.80;;;;;;;11.01;100.00;92988.78;5069846;28;20356;-83
2023/10/18 07:42:51;;;;;;;34.73;25.40;;;;;;;10.73;100.00;92984.25;5074130;28;20186;-82
2023/10/18 07:45:17;;;;;;;16.30;14.70;;;;;;;10.87;100.00;92990.44;5057416;28;20217;-82
2023/10/18 07:47:42;;;;;;;38.10;22.53;;;;;;;10.45;100.00;92974.47;5075873;28;20191;-83
2023/10/18 07:52:54;;;;;;;16.37;15.00;;;;;;;10.85;100.00;92979.47;5079579;28;20200;-83
2023/10/18 07:55:23;;;;;;;16.20;14.50;;;;;;;10.87;100.00;92980.00;5066538;28;20266;-82
2023/10/18 07:57:50;;;;;;;18.17;15.20;;;;;;;10.86;100.00;92975.03;5068662;28;20198;-82
2023/10/18 08:00:22;;;;;;;17.47;15.87;;;;;;;11.02;100.00;92981.72;5046321;28;20187;-82
2023/10/18 08:02:50;;;;;;;17.37;14.73;;;;;;;10.93;100.00;92926.66;5044070;28;20179;-82
2023/10/18 08:05:19;;;;;;;17.67;15.97;;;;;;;11.41;98.50;92963.41;5045037;28;20174;-82
2023/10/18 08:07:49;;;;;;;16.60;15.13;;;;;;;11.55;97.75;92980.78;5045004;28;20170;-82
2023/10/18 08:10:19;;;;;;;15.73;14.33;;;;;;;11.25;98.55;92934.75;5037720;28;20175;-83
2023/10/18 08:12:48;;;;;;;16.63;15.03;;;;;;;11.57;97.01;92986.53;5049514;28;20241;-82
2023/10/18 08:15:13;;;;;;;15.80;14.30;;;;;;;11.25;97.87;92987.03;5044975;28;20279;-83
2023/10/18 08:17:46;;;;;;;15.90;14.60;;;;;;;11.04;99.57;92984.84;5080970;28;20281;-79
2023/10/18 08:22:47;;;;;;;17.63;16.03;;;;;;;10.87;100.00;92995.66;5049026;28;20197;-82
2023/10/18 08:25:24;;;;;;;16.20;14.90;;;;;;;10.86;100.00;93001.16;5048704;28;20178;-83
2023/10/18 08:27:53;;;;;;;15.13;13.90;;;;;;;11.00;99.89;92995.03;5048759;28;20190;-82
2023/10/18 08:30:38;;;;;;;14.87;13.67;;;;;;;11.04;100.00;93000.50;5048978;28;20183;-81
2023/10/18 08:33:05;;;;;;;15.73;14.43;;;;;;;11.09;99.01;92988.22;5042752;28;20226;-80
2023/10/18 08:35:31;;;;;;;14.30;13.10;;;;;;;11.03;97.57;92988.50;5045068;28;20206;-83
2023/10/18 08:38:01;;;;;;;15.27;13.77;;;;;;;11.04;99.10;92998.69;5045940;28;20219;-82
2023/10/18 08:40:27;;;;;;;15.33;13.83;;;;;;;11.03;98.38;92996.34;5048870;28;20182;-84
2023/10/18 08:43:05;;;;;;;15.77;14.17;;;;;;;11.16;98.61;93004.34;5048126;28;20197;-81
2023/10/18 08:45:36;;;;;;;15.30;13.97;;;;;;;11.09;100.00;93009.13;5049097;28;20214;-82
2023/10/18 08:48:11;;;;;;;15.73;14.43;;;;;;;11.12;100.00;93005.97;5043792;28;20293;-82
2023/10/18 08:50:39;;;;;;;16.73;15.40;;;;;;;11.19;100.00;92998.56;5049152;28;20174;-82
2023/10/18 08:53:05;;;;;;;15.77;14.17;;;;;;;11.39;97.52;93016.72;5041957;28;20219;-82
2023/10/18 08:55:44;;;;;;;17.03;14.97;;;;;;;11.25;99.77;93012.41;5047453;28;20960;-81
2023/10/18 08:58:11;;;;;;;15.53;14.20;;;;;;;11.48;98.14;93021.38;5043504;28;20237;-83
2023/10/18 09:03:03;;;;;;;17.10;15.50;;;;;;;11.64;98.67;93015.00;5046275;28;20280;-82
2023/10/18 09:05:30;;;;;;;16.77;15.10;;;;;;;11.76;96.15;93023.25;5050385;28;20174;-82
2023/10/18 09:08:05;;;;;;;15.03;13.57;;;;;;;11.70;94.67;93019.13;5057582;28;20216;-81
2023/10/18 09:18:25;;;;;;;14.60;13.40;;;;;;;11.90;94.09;93014.50;5047271;28;20219;-82
2023/10/18 09:20:55;;;;;;;15.17;13.67;;;;;;;11.89;93.97;93033.09;5054779;28;20191;-82
2023/10/18 09:23:21;;;;;;;14.83;13.53;;;;;;;11.92;94.73;93024.69;5039726;28;20303;-84
2023/10/18 09:26:18;;;;;;;14.40;13.30;;;;;;;11.94;96.71;93028.59;5046690;28;20188;-82
2023/10/18 09:28:42;;;;;;;14.90;13.80;;;;;;;11.65;96.48;93030.41;5051132;28;20275;-83
2023/10/18 09:31:12;;;;;;;14.73;13.53;;;;;;;12.00;93.93;93034.56;5048881;28;20183;-78
2023/10/18 09:34:07;;;;;;;15.07;13.83;;;;;;;11.94;94.29;93033.06;5047636;28;20218;-84
2023/10/18 09:36:28;;;;;;;15.20;13.80;;;;;;;11.87;94.09;93035.19;5045815;28;20204;-85
2023/10/18 09:38:57;;;;;;;14.77;13.57;;;;;;;11.98;94.27;93020.97;5051132;28;20218;-84
2023/10/18 09:41:26;;;;;;;15.57;14.30;;;;;;;11.99;92.99;93014.66;5051512;28;20208;-84
2023/10/18 09:43:52;;;;;;;15.40;14.27;;;;;;;11.83;92.88;93021.88;5051673;28;20213;-84
2023/10/18 09:46:18;;;;;;;16.23;14.57;;;;;;;11.76;93.79;93015.41;5051093;28;20962;-84
2023/10/18 09:48:46;;;;;;;15.07;13.77;;;;;;;11.74;93.30;93009.66;5047222;28;20234;-79
2023/10/18 09:51:20;;;;;;;15.40;14.17;;;;;;;11.66;95.28;93012.91;5052133;28;20192;-83
2023/10/18 09:53:49;;;;;;;16.07;14.57;;;;;;;11.63;95.23;93018.66;5037549;28;20238;-83
2023/10/18 09:56:19;;;;;;;15.23;13.87;;;;;;;11.82;95.31;93016.94;5052122;28;20194;-85
2023/10/18 09:58:49;;;;;;;16.07;14.50;;;;;;;11.82;94.14;93009.88;5047905;28;20317;-84
2023/10/18 10:01:25;;;;;;;16.03;14.73;;;;;;;11.64;97.01;93005.34;5051502;28;20216;-83
2023/10/18 10:03:52;;;;;;;15.53;14.23;;;;;;;11.74;97.09;93000.00;5049784;28;20240;-83
2023/10/18 10:06:23;;;;;;;13.97;12.87;;;;;;;11.87;96.45;92988.13;5051769;28;20184;-80
2023/10/18 10:08:51;;;;;;;16.23;14.97;;;;;;;12.06;96.00;92996.81;5050364;28;20228;-84
2023/10/18 10:11:22;;;;;;;18.20;14.93;;;;;;;12.16;94.52;92992.25;5039712;28;20189;-84
2023/10/18 10:13:50;;;;;;;16.40;14.73;;;;;;;11.94;94.47;92983.34;5051526;28;20222;-84
2023/10/18 10:16:20;;;;;;;16.00;14.50;;;;;;;12.12;93.90;92982.63;5049387;28;20194;-84
2023/10/18 10:18:47;;;;;;;14.90;13.70;;;;;;;12.11;93.67;92981.84;5050943;28;20211;-83
2023/10/18 10:21:16;;;;;;;15.27;13.80;;;;;;;11.98;93.03;92945.09;5051446;28;20181;-83
2023/10/18 10:23:41;;;;;;;15.50;14.20;;;;;;;12.19;92.58;92973.38;5045812;28;20273;-83
2023/10/18 10:26:15;;;;;;;15.93;14.53;;;;;;;12.12;92.32;92965.09;5076459;28;20178;-83
2023/10/18 10:29:33;;;;;;;15.10;13.80;;;;;;;12.12;93.36;92974.78;5048690;28;20760;-84
2023/10/18 10:31:55;;;;;;;16.40;14.80;;;;;;;12.18;92.74;92969.22;5047935;28;20203;-85
2023/10/18 10:34:32;;;;;;;15.33;14.17;;;;;;;12.15;93.22;92955.88;5056174;28;20235;-83
2023/10/18 10:37:18;;;;;;;15.87;14.43;;;;;;;12.20;92.75;92966.31;5051400;28;20184;-83
2023/10/18 10:39:49;;;;;;;14.57;13.40;;;;;;;12.20;92.86;92950.59;5049516;28;20254;-83
2023/10/18 10:42:41;;;;;;;16.57;13.67;;;;;;;12.45;92.56;92963.41;5051553;28;20190;-84
2023/10/18 10:45:23;;;;;;;14.73;13.43;;;;;;;12.33;92.67;92942.84;5046837;28;20241;-84
2023/10/18 10:47:50;;;;;;;15.10;13.80;;;;;;;12.47;91.19;92945.53;5035113;28;20210;-83
2023/10/18 10:50:42;;;;;;;15.57;14.13;;;;;;;12.33;92.47;92958.56;5045561;28;20182;-84
2023/10/18 10:53:28;;;;;;;15.60;14.30;;;;;;;12.42;91.02;92953.50;5050806;28;20229;-84
2023/10/18 10:55:54;;;;;;;14.90;13.70;;;;;;;12.13;91.64;92965.84;5033234;28;20330;-81
2023/10/18 10:58:22;;;;;;;15.37;14.07;;;;;;;12.17;91.52;92966.88;5049086;28;20236;-84
2023/10/18 11:01:07;;;;;;;19.90;16.77;;;;;;;11.94;92.58;92941.47;5051320;28;20828;-85
2023/10/18 11:03:55;;;;;;;17.87;14.63;;;;;;;11.80;95.27;92966.75;5050196;28;20218;-84
2023/10/18 11:06:22;;;;;;;17.27;15.57;;;;;;;11.54;96.15;92960.94;5050298;28;20264;-83
2023/10/18 11:08:49;;;;;;;14.23;13.13;;;;;;;11.95;93.54;92964.75;5037970;28;20237;-84
2023/10/18 11:11:15;;;;;;;47.63;28.17;;;;;;;11.84;94.04;92963.28;5043824;28;20192;-83
2023/10/18 11:13:41;;;;;;;22.13;15.63;;;;;;;11.97;93.70;92964.47;5050373;28;20245;-83
2023/10/18 11:16:07;;;;;;;21.80;17.27;;;;;;;11.99;93.16;92967.56;5044992;28;20219;-84
2023/10/18 11:18:39;;;;;;;15.30;13.83;;;;;;;11.44;96.61;92979.31;5050055;28;20252;-84
2023/10/18 11:21:05;;;;;;;14.30;13.00;;;;;;;11.29;98.90;92961.94;5051274;28;20192;-83
2023/10/18 11:23:37;;;;;;;16.40;15.03;;;;;;;11.42;97.83;92965.75;5043233;28;20237;-84
2023/10/18 11:26:09;;;;;;;15.87;14.60;;;;;;;11.18;98.87;92973.50;5042843;28;20183;-79
2023/10/18 11:28:37;;;;;;;16.40;15.03;;;;;;;11.11;98.88;92969.66;5048606;28;20218;-82
2023/10/18 11:31:04;;;;;;;15.63;14.20;;;;;;;11.32;97.41;92964.00;5050443;28;20205;-84
2023/10/18 11:36:20;;;;;;;14.30;13.20;;;;;;;11.76;94.61;92955.25;5050546;28;20295;-83
2023/10/18 11:41:34;;;;;;;15.53;14.10;;;;;;;11.78;97.90;92971.47;5046056;28;20273;-84
2023/10/18 11:44:07;;;;;;;16.60;15.10;;;;;;;11.84;96.83;92962.50;5049662;28;20230;-83
2023/10/18 11:46:50;;;;;;;16.53;15.13;;;;;;;11.84;96.69;92970.34;5049861;28;20227;-83
2023/10/18 11:49:20;;;;;;;16.50;15.10;;;;;;;11.51;96.07;92968.53;5043011;28;20222;-84
2023/10/18 11:51:48;;;;;;;16.50;15.00;;;;;;;11.49;97.13;92957.59;5048670;28;20190;-82
2023/10/18 11:54:34;;;;;;;16.10;14.60;;;;;;;11.81;96.98;92955.22;5049355;28;20219;-85
2023/10/18 11:57:02;;;;;;;16.93;15.43;;;;;;;11.75;97.26;92941.38;5048313;28;20261;-84
2023/10/18 11:59:28;;;;;;;17.77;15.97;;;;;;;11.87;96.30;92925.31;5042293;28;20273;-84
2023/10/18 12:02:05;;;;;;;17.97;16.17;;;;;;;11.74;97.64;92933.81;5048884;28;20221;-82
2023/10/18 12:04:37;;;;;;;19.17;17.30;;;;;;;12.07;97.36;92944.22;5048800;28;20201;-83
2023/10/18 12:07:04;;;;;;;17.40;15.60;;;;;;;11.82;97.93;92951.53;5036635;28;20203;-84
2023/10/18 12:09:42;;;;;;;19.17;17.53;;;;;;;11.86;97.29;92947.31;5046028;28;20214;-81
2023/10/18 12:12:12;;;;;;;18.30;16.50;;;;;;;11.38;98.48;92948.28;5049545;28;20204;-84
2023/10/18 12:14:42;;;;;;;18.33;16.50;;;;;;;11.61;98.08;92944.91;5044118;28;20223;-85
2023/10/18 12:17:08;;;;;;;17.83;16.30;;;;;;;11.49;96.81;92939.28;5049567;28;20194;-83